createdAt,value
2018-05-25T00:02:25.929Z,99.90
2018-05-25T00:04:54.019Z,99.90
2018-05-25T00:07:22.096Z,99.90
2018-05-25T00:09:50.176Z,99.90
2018-05-25T00:12:19.262Z,99.90
2018-05-25T00:14:47.333Z,99.90
2018-05-25T00:17:15.418Z,99.90
2018-05-25T00:19:44.274Z,99.90
2018-05-25T00:22:17.491Z,99.90
2018-05-25T00:24:45.618Z,99.90
2018-05-25T00:27:14.426Z,99.90
2018-05-25T00:29:42.493Z,99.90
2018-05-25T00:32:34.733Z,99.90
2018-05-25T00:35:02.876Z,99.90
2018-05-25T00:37:31.040Z,99.90
2018-05-25T00:39:59.180Z,99.90
2018-05-25T00:42:32.643Z,99.90
2018-05-25T00:45:00.735Z,99.90
2018-05-25T00:47:28.826Z,99.90
2018-05-25T00:49:56.930Z,99.90
2018-05-25T00:52:32.387Z,99.90
2018-05-25T00:55:18.254Z,99.90
2018-05-25T00:57:46.424Z,99.90
2018-05-25T01:00:15.254Z,99.90
2018-05-25T01:02:43.374Z,99.90
2018-05-25T01:05:11.451Z,99.90
2018-05-25T01:07:40.317Z,99.90
2018-05-25T01:10:08.403Z,99.90
2018-05-25T01:12:36.491Z,99.90
2018-05-25T01:15:05.335Z,99.90
2018-05-25T01:17:33.426Z,99.90
2018-05-25T01:20:01.505Z,99.90
2018-05-25T01:22:31.478Z,99.90
2018-05-25T01:24:59.590Z,99.90
2018-05-25T01:27:27.698Z,99.90
2018-05-25T01:29:55.837Z,99.90
2018-05-25T01:32:23.990Z,99.90
2018-05-25T01:34:52.212Z,99.90
2018-05-25T01:37:20.364Z,99.90
2018-05-25T01:39:49.289Z,99.90
2018-05-25T01:42:25.290Z,99.90
2018-05-25T01:44:53.402Z,99.90
2018-05-25T01:47:21.516Z,99.90
2018-05-25T01:49:49.650Z,99.90
2018-05-25T01:52:18.709Z,99.90
2018-05-25T01:54:46.798Z,99.90
2018-05-25T01:57:15.717Z,99.90
2018-05-25T01:59:43.878Z,99.90
2018-05-25T02:02:11.998Z,99.90
2018-05-25T02:04:40.137Z,99.90
2018-05-25T02:07:08.263Z,99.90
2018-05-25T02:09:37.166Z,99.90
2018-05-25T02:12:07.004Z,99.90
2018-05-25T02:14:35.193Z,99.90
2018-05-25T02:17:03.360Z,99.90
2018-05-25T02:19:32.275Z,99.90
2018-05-25T02:22:00.485Z,99.90
2018-05-25T02:24:29.359Z,99.90
2018-05-25T02:26:57.558Z,99.90
2018-05-25T02:29:26.457Z,99.90
2018-05-25T02:32:02.302Z,99.90
2018-05-25T02:34:31.195Z,99.90
2018-05-25T02:37:00.100Z,99.90
2018-05-25T02:39:28.303Z,99.90
2018-05-25T02:41:57.379Z,99.90
2018-05-25T02:44:25.532Z,99.90
2018-05-25T02:46:54.415Z,99.90
2018-05-25T02:49:23.288Z,99.90
2018-05-25T02:51:56.323Z,99.90
2018-05-25T02:54:24.460Z,99.90
2018-05-25T02:56:53.337Z,99.90
2018-05-25T02:59:21.426Z,99.90
2018-05-25T03:01:57.969Z,99.90
2018-05-25T03:04:26.146Z,99.90
2018-05-25T03:06:54.322Z,99.90
2018-05-25T03:09:22.511Z,99.90
2018-05-25T03:11:52.418Z,99.90
2018-05-25T03:14:21.279Z,99.90
2018-05-25T03:16:49.386Z,99.90
2018-05-25T03:19:18.249Z,99.90
2018-05-25T03:21:47.249Z,99.90
2018-05-25T03:24:15.350Z,99.90
2018-05-25T03:26:44.229Z,99.90
2018-05-25T03:29:12.315Z,99.90
2018-05-25T03:31:40.402Z,99.90
2018-05-25T03:34:08.528Z,99.90
2018-05-25T03:36:36.643Z,99.90
2018-05-25T03:39:06.375Z,99.90
2018-05-25T03:41:35.434Z,99.90
2018-05-25T03:44:04.326Z,99.90
2018-05-25T03:46:32.492Z,99.90
2018-05-25T03:49:00.667Z,99.90
2018-05-25T03:51:31.588Z,99.90
2018-05-25T03:53:59.762Z,99.90
2018-05-25T03:56:28.670Z,99.90
2018-05-25T03:59:15.333Z,99.90
2018-05-25T04:01:57.900Z,99.90
2018-05-25T04:04:26.078Z,99.90
2018-05-25T04:06:54.222Z,99.90
2018-05-25T04:09:22.333Z,99.90
2018-05-25T04:11:58.263Z,99.90
2018-05-25T04:14:27.123Z,99.90
2018-05-25T04:16:55.214Z,99.90
2018-05-25T04:19:23.328Z,99.90
2018-05-25T04:21:51.452Z,99.90
2018-05-25T04:24:19.610Z,99.90
2018-05-25T04:26:47.763Z,99.90
2018-05-25T04:29:15.908Z,99.90
2018-05-25T04:31:54.211Z,99.90
2018-05-25T04:34:22.418Z,99.90
2018-05-25T04:36:50.629Z,99.90
2018-05-25T04:39:18.807Z,99.90
2018-05-25T04:41:48.731Z,99.90
2018-05-25T04:44:17.666Z,99.90
2018-05-25T04:46:45.830Z,99.90
2018-05-25T04:49:14.016Z,99.90
2018-05-25T04:51:44.115Z,99.90
2018-05-25T04:54:12.271Z,99.90
2018-05-25T04:56:41.151Z,99.90
2018-05-25T04:59:10.023Z,99.90
2018-05-25T05:01:39.168Z,99.90
2018-05-25T05:04:07.323Z,99.90
2018-05-25T05:06:36.306Z,99.90
2018-05-25T05:11:33.360Z,99.90
2018-05-25T05:14:02.224Z,99.90
2018-05-25T05:16:30.319Z,99.90
2018-05-25T05:18:58.445Z,99.90
2018-05-25T05:21:38.643Z,99.90
2018-05-25T05:24:06.728Z,99.90
2018-05-25T05:26:35.629Z,99.90
2018-05-25T05:29:03.809Z,99.90
2018-05-25T05:31:33.675Z,99.90
2018-05-25T05:34:01.800Z,99.90
2018-05-25T05:36:29.909Z,99.90
2018-05-25T05:38:58.006Z,99.90
2018-05-25T05:41:26.226Z,99.90
2018-05-25T05:43:54.411Z,99.90
2018-05-25T05:46:22.529Z,99.90
2018-05-25T05:48:50.636Z,99.90
2018-05-25T05:51:22.394Z,99.90
2018-05-25T05:53:50.551Z,99.90
2018-05-25T05:56:19.434Z,99.90
2018-05-25T05:58:48.330Z,99.90
2018-05-25T06:01:24.416Z,99.90
2018-05-25T06:03:52.575Z,99.90
2018-05-25T06:06:20.694Z,99.90
2018-05-25T06:08:48.850Z,99.90
2018-05-25T06:11:24.277Z,99.90
2018-05-25T06:13:52.414Z,99.90
2018-05-25T06:16:21.275Z,99.90
2018-05-25T06:18:49.384Z,99.90
2018-05-25T06:21:47.738Z,99.90
2018-05-25T06:24:15.858Z,99.90
2018-05-25T06:26:44.006Z,99.90
2018-05-25T06:29:12.865Z,99.90
2018-05-25T06:31:40.988Z,99.90
2018-05-25T06:34:09.189Z,99.90
2018-05-25T06:36:37.290Z,99.90
2018-05-25T06:39:06.310Z,99.90
2018-05-25T06:41:38.938Z,99.90
2018-05-25T06:44:07.090Z,99.90
2018-05-25T06:46:35.991Z,99.90
2018-05-25T06:49:04.162Z,99.90
2018-05-25T06:51:33.226Z,99.90
2018-05-25T06:54:01.381Z,99.90
2018-05-25T06:56:30.241Z,99.90
2018-05-25T06:58:58.373Z,99.90
2018-05-25T07:01:44.457Z,99.90
2018-05-25T07:04:12.611Z,99.90
2018-05-25T07:06:40.705Z,99.90
2018-05-25T07:09:08.836Z,99.90
2018-05-25T07:11:40.719Z,99.90
2018-05-25T07:14:09.660Z,99.90
2018-05-25T07:16:37.763Z,99.90
2018-05-25T07:19:05.960Z,99.90
2018-05-25T07:21:36.819Z,99.90
2018-05-25T07:24:05.058Z,99.90
2018-05-25T07:26:33.982Z,99.90
2018-05-25T07:29:02.174Z,99.90
2018-05-25T07:31:30.298Z,99.90
2018-05-25T07:33:59.190Z,99.90
2018-05-25T07:36:27.322Z,99.90
2018-05-25T07:38:55.481Z,99.90
2018-05-25T07:41:24.544Z,99.90
2018-05-25T07:43:52.682Z,99.90
2018-05-25T07:46:20.805Z,99.90
2018-05-25T07:48:48.916Z,99.90
2018-05-25T07:51:17.043Z,99.90
2018-05-25T07:53:45.239Z,99.90
2018-05-25T07:56:13.357Z,99.90
2018-05-25T07:58:41.437Z,99.90
2018-05-25T08:01:10.306Z,99.90
2018-05-25T08:03:38.381Z,99.90
2018-05-25T08:06:06.474Z,99.90
2018-05-25T08:08:35.327Z,99.90
2018-05-25T08:11:04.343Z,99.90
2018-05-25T08:13:32.437Z,99.90
2018-05-25T08:16:01.298Z,99.90
2018-05-25T08:18:29.382Z,99.90
2018-05-25T08:21:11.854Z,99.90
2018-05-25T08:23:40.031Z,99.90
2018-05-25T08:26:08.191Z,99.90
2018-05-25T08:28:36.373Z,99.90
2018-05-25T08:31:13.139Z,99.90
2018-05-25T08:33:41.303Z,99.90
2018-05-25T08:36:09.494Z,99.90
2018-05-25T08:38:37.666Z,99.90
2018-05-25T08:41:10.129Z,99.90
2018-05-25T08:43:38.232Z,99.90
2018-05-25T08:46:06.358Z,99.90
2018-05-25T08:48:34.482Z,99.90
2018-05-25T08:51:02.586Z,99.90
2018-05-25T08:53:30.698Z,99.90
2018-05-25T08:55:58.817Z,99.90
2018-05-25T08:58:27.734Z,99.90
2018-05-25T09:00:59.873Z,99.90
2018-05-25T09:03:28.771Z,99.90
2018-05-25T09:05:57.622Z,99.90
2018-05-25T09:08:25.722Z,99.90
2018-05-25T09:10:53.814Z,99.90
2018-05-25T09:13:22.666Z,99.90
2018-05-25T09:15:50.745Z,99.90
2018-05-25T09:18:18.834Z,99.90
2018-05-25T09:20:48.649Z,99.90
2018-05-25T09:23:16.813Z,99.90
2018-05-25T09:25:44.909Z,99.90
2018-05-25T09:28:12.997Z,99.90
2018-05-25T09:30:48.282Z,99.90
2018-05-25T09:33:16.350Z,99.90
2018-05-25T09:35:44.426Z,99.90
2018-05-25T09:38:12.513Z,99.90
2018-05-25T09:40:57.728Z,99.90
2018-05-25T09:43:25.831Z,99.90
2018-05-25T09:45:54.029Z,99.90
2018-05-25T09:48:22.925Z,99.90
2018-05-25T09:50:52.730Z,99.90
2018-05-25T09:53:21.618Z,99.90
2018-05-25T09:55:49.783Z,99.90
2018-05-25T09:58:17.921Z,99.90
2018-05-25T10:01:44.562Z,99.90
2018-05-25T10:04:12.730Z,99.90
2018-05-25T10:06:40.822Z,99.90
2018-05-25T10:09:08.965Z,99.90
2018-05-25T10:11:39.063Z,99.90
2018-05-25T10:14:07.946Z,99.90
2018-05-25T10:16:36.899Z,99.90
2018-05-25T10:19:05.051Z,99.90
2018-05-25T10:21:33.154Z,99.90
2018-05-25T10:24:01.288Z,99.70
2018-05-25T10:26:30.085Z,98.30
2018-05-25T10:28:58.412Z,98.90
2018-05-25T10:31:28.459Z,97.20
2018-05-25T10:33:56.637Z,95.40
2018-05-25T10:36:24.855Z,96.70
2018-05-25T10:38:53.000Z,95.90
2018-05-25T10:41:36.256Z,95.80
2018-05-25T10:44:04.346Z,94.50
2018-05-25T10:46:32.519Z,92.20
2018-05-25T10:49:01.460Z,94.60
2018-05-25T10:51:30.573Z,94.60
2018-05-25T10:53:58.735Z,94.30
2018-05-25T10:56:26.894Z,92.10
2018-05-25T10:58:55.098Z,90.50
2018-05-25T11:01:53.950Z,91.10
2018-05-25T11:04:22.070Z,91.00
2018-05-25T11:06:50.247Z,90.30
2018-05-25T11:09:18.404Z,90.50
2018-05-25T11:12:08.753Z,91.90
2018-05-25T11:14:37.630Z,86.20
2018-05-25T11:17:06.563Z,80.50
2018-05-25T11:19:34.744Z,80.60
2018-05-25T11:22:31.164Z,83.00
2018-05-25T11:24:59.344Z,88.20
2018-05-25T11:27:27.474Z,92.00
2018-05-25T11:29:55.630Z,92.70
2018-05-25T11:32:23.755Z,94.20
2018-05-25T11:34:51.850Z,93.40
2018-05-25T11:37:19.990Z,93.30
2018-05-25T11:39:48.067Z,92.00
2018-05-25T11:42:19.708Z,92.20
2018-05-25T11:44:49.441Z,87.70
2018-05-25T11:47:17.631Z,87.60
2018-05-25T11:49:45.800Z,85.10
2018-05-25T11:52:31.339Z,76.20
2018-05-25T11:55:00.226Z,76.20
2018-05-25T11:57:29.111Z,76.40
2018-05-25T11:59:57.994Z,72.40
2018-05-25T12:02:26.179Z,71.40
2018-05-25T12:04:55.063Z,67.20
2018-05-25T12:07:24.007Z,68.80
2018-05-25T12:09:52.160Z,68.70
2018-05-25T12:12:21.266Z,68.70
2018-05-25T12:14:49.426Z,63.50
2018-05-25T12:17:17.602Z,60.70
2018-05-25T12:19:45.766Z,61.80
2018-05-25T12:22:24.355Z,62.80
2018-05-25T12:24:52.518Z,59.80
2018-05-25T12:27:20.691Z,59.80
2018-05-25T12:29:48.884Z,56.60
2018-05-25T12:32:18.738Z,57.60
2018-05-25T12:34:46.891Z,57.50
2018-05-25T12:37:15.035Z,54.40
2018-05-25T12:39:43.221Z,51.60
2018-05-25T12:42:23.050Z,59.80
2018-05-25T12:45:08.974Z,57.70
2018-05-25T12:47:37.126Z,60.70
2018-05-25T12:50:05.990Z,58.40
2018-05-25T12:52:41.222Z,58.40
2018-05-25T12:55:09.309Z,56.20
2018-05-25T12:57:37.397Z,53.90
2018-05-25T13:00:06.266Z,48.30
2018-05-25T13:02:35.353Z,52.40
2018-05-25T13:05:03.458Z,53.10
2018-05-25T13:07:32.339Z,59.50
2018-05-25T13:10:00.493Z,59.60
2018-05-25T13:12:28.638Z,62.50
2018-05-25T13:14:56.815Z,61.20
2018-05-25T13:17:24.958Z,61.20
2018-05-25T13:19:53.107Z,57.20
2018-05-25T13:22:23.882Z,49.10
2018-05-25T13:24:52.025Z,48.90
2018-05-25T13:27:20.878Z,46.50
2018-05-25T13:29:48.967Z,46.50
2018-05-25T13:32:27.592Z,49.10
2018-05-25T13:34:55.703Z,48.70
2018-05-25T13:37:23.842Z,51.80
2018-05-25T13:39:52.756Z,52.80
2018-05-25T13:42:34.734Z,52.80
2018-05-25T13:45:02.945Z,52.30
2018-05-25T13:47:31.146Z,49.10
2018-05-25T13:49:59.246Z,49.20
2018-05-25T13:52:32.491Z,45.00
2018-05-25T13:55:00.583Z,44.40
2018-05-25T13:57:28.681Z,47.90
2018-05-25T13:59:57.564Z,49.40
2018-05-25T14:02:26.722Z,49.30
2018-05-25T14:04:54.834Z,54.40
2018-05-25T14:07:22.966Z,55.30
2018-05-25T14:09:51.078Z,56.60
2018-05-25T14:12:20.302Z,57.50
2018-05-25T14:14:49.221Z,57.90
2018-05-25T14:17:17.359Z,57.90
2018-05-25T14:19:46.261Z,63.10
2018-05-25T14:22:19.381Z,63.00
2018-05-25T14:24:48.626Z,69.90
2018-05-25T14:27:16.747Z,70.50
2018-05-25T14:29:44.878Z,74.80
2018-05-25T14:32:22.145Z,81.90
2018-05-25T14:34:50.214Z,81.80
2018-05-25T14:37:18.295Z,84.80
2018-05-25T14:39:46.394Z,92.40
2018-05-25T14:42:14.474Z,89.40
2018-05-25T14:44:42.579Z,90.80
2018-05-25T14:47:10.716Z,90.90
2018-05-25T14:49:38.765Z,91.10
2018-05-25T14:52:20.652Z,84.80
2018-05-25T14:54:48.778Z,84.40
2018-05-25T14:57:16.861Z,78.40
2018-05-25T14:59:44.946Z,72.90
2018-05-25T15:02:14.980Z,69.10
2018-05-25T15:04:43.053Z,66.90
2018-05-25T15:07:11.160Z,64.90
2018-05-25T15:09:39.334Z,60.90
2018-05-25T15:12:07.405Z,60.20
2018-05-25T15:14:35.538Z,57.30
2018-05-25T15:17:03.664Z,58.60
2018-05-25T15:19:31.776Z,58.90
2018-05-25T15:22:05.004Z,61.30
2018-05-25T15:24:33.134Z,63.50
2018-05-25T15:27:01.318Z,65.80
2018-05-25T15:29:29.498Z,67.80
2018-05-25T15:31:58.583Z,67.60
2018-05-25T15:34:26.658Z,70.00
2018-05-25T15:36:54.753Z,85.80
2018-05-25T15:39:24.014Z,88.70
2018-05-25T15:42:05.854Z,88.60
2018-05-25T15:44:33.949Z,90.80
2018-05-25T15:47:03.186Z,93.20
2018-05-25T15:49:31.355Z,93.50
2018-05-25T15:52:01.411Z,95.00
2018-05-25T15:54:30.275Z,96.50
2018-05-25T15:56:58.373Z,96.50
2018-05-25T15:59:27.229Z,97.70
2018-05-25T16:01:56.310Z,97.70
2018-05-25T16:04:24.425Z,98.70
2018-05-25T16:06:52.619Z,99.20
2018-05-25T16:09:20.770Z,99.90
2018-05-25T16:12:01.275Z,99.90
2018-05-25T16:14:29.389Z,99.90
2018-05-25T16:16:58.628Z,99.90
2018-05-25T16:19:26.803Z,99.90
2018-05-25T16:22:09.678Z,99.90
2018-05-25T16:24:37.769Z,99.90
2018-05-25T16:27:06.638Z,99.90
2018-05-25T16:29:34.757Z,99.90
2018-05-25T16:32:18.141Z,99.90
2018-05-25T16:34:46.290Z,99.90
2018-05-25T16:37:19.945Z,99.90
2018-05-25T16:39:48.053Z,99.90
2018-05-25T16:42:16.214Z,99.90
2018-05-25T16:44:44.334Z,99.90
2018-05-25T16:47:12.439Z,99.90
2018-05-25T16:49:40.506Z,99.90
2018-05-25T16:52:08.598Z,99.90
2018-05-25T16:54:36.670Z,99.90
2018-05-25T16:57:04.834Z,99.90
2018-05-25T16:59:32.994Z,99.90
2018-05-25T17:02:15.181Z,99.10
2018-05-25T17:04:44.053Z,99.90
2018-05-25T17:07:12.254Z,99.90
2018-05-25T17:09:41.158Z,99.10
2018-05-25T17:12:09.318Z,99.10
2018-05-25T17:14:38.195Z,99.90
2018-05-25T17:17:07.110Z,99.90
2018-05-25T17:19:35.231Z,99.90
2018-05-25T17:22:12.462Z,99.90
2018-05-25T17:24:40.582Z,99.90
2018-05-25T17:27:08.728Z,99.90
2018-05-25T17:29:36.846Z,99.90
2018-05-25T17:32:04.945Z,99.90
2018-05-25T17:34:34.692Z,99.90
2018-05-25T17:37:02.766Z,99.90
2018-05-25T17:39:30.841Z,99.90
2018-05-25T17:42:06.953Z,99.90
2018-05-25T17:44:35.018Z,99.90
2018-05-25T17:47:03.070Z,99.90
2018-05-25T17:49:31.149Z,99.90
2018-05-25T17:52:00.222Z,99.90
2018-05-25T17:54:28.329Z,99.90
2018-05-25T17:56:57.188Z,99.90
2018-05-25T17:59:25.245Z,99.90
2018-05-25T18:02:03.077Z,99.90
2018-05-25T18:04:31.162Z,99.90
2018-05-25T18:07:00.002Z,99.90
2018-05-25T18:09:28.090Z,99.90
2018-05-25T18:11:57.309Z,99.90
2018-05-25T18:14:25.398Z,99.90
2018-05-25T18:16:54.237Z,99.90
2018-05-25T18:19:22.318Z,99.90
2018-05-25T18:21:50.389Z,99.90
2018-05-25T18:24:18.477Z,99.90
2018-05-25T18:26:46.574Z,99.90
2018-05-25T18:29:15.433Z,99.90
2018-05-25T18:31:45.432Z,99.90
2018-05-25T18:34:13.506Z,99.90
2018-05-25T18:36:41.591Z,99.90
2018-05-25T18:39:09.653Z,99.90
2018-05-25T18:41:39.679Z,99.90
2018-05-25T18:44:07.745Z,99.90
2018-05-25T18:46:35.828Z,99.90
2018-05-25T18:49:03.890Z,99.90
2018-05-25T18:51:32.889Z,99.90
2018-05-25T18:54:18.738Z,99.90
2018-05-25T18:56:46.810Z,99.90
2018-05-25T18:59:14.904Z,99.90
2018-05-25T19:01:42.982Z,99.90
2018-05-25T19:04:11.053Z,99.90
2018-05-25T19:06:43.430Z,99.90
2018-05-25T19:09:11.509Z,99.90
2018-05-25T19:11:39.583Z,99.90
2018-05-25T19:14:09.585Z,99.90
2018-05-25T19:16:38.569Z,99.90
2018-05-25T19:19:06.639Z,99.90
2018-05-25T19:21:36.667Z,99.90
2018-05-25T19:24:04.733Z,99.90
2018-05-25T19:26:32.809Z,99.90
2018-05-25T19:29:00.882Z,99.90
2018-05-25T19:31:29.893Z,99.90
2018-05-25T19:33:58.730Z,99.90
2018-05-25T19:36:26.805Z,99.90
2018-05-25T19:38:54.877Z,99.90
2018-05-25T19:41:23.913Z,99.90
2018-05-25T19:43:51.985Z,99.90
2018-05-25T19:46:20.062Z,99.90
2018-05-25T19:48:48.137Z,99.90
2018-05-25T19:51:20.369Z,99.90
2018-05-25T19:53:48.450Z,99.90
2018-05-25T19:56:16.518Z,99.90
2018-05-25T19:58:44.597Z,99.90
2018-05-25T20:01:16.549Z,99.90
2018-05-25T20:03:44.626Z,99.90
2018-05-25T20:06:12.700Z,99.90
2018-05-25T20:08:40.781Z,99.90
2018-05-25T20:11:26.006Z,99.90
2018-05-25T20:13:54.091Z,99.90
2018-05-25T20:16:22.166Z,99.90
2018-05-25T20:18:50.265Z,99.90
2018-05-25T20:21:22.929Z,99.90
2018-05-25T20:23:51.009Z,99.90
2018-05-25T20:26:20.306Z,99.90
2018-05-25T20:28:48.417Z,99.90
2018-05-25T20:31:17.252Z,99.90
2018-05-25T20:33:45.346Z,99.90
2018-05-25T20:36:13.474Z,99.90
2018-05-25T20:38:41.630Z,99.90
2018-05-25T20:41:11.741Z,99.90
2018-05-25T20:43:39.890Z,99.90
2018-05-25T20:46:08.054Z,99.90
2018-05-25T20:48:36.215Z,99.90
2018-05-25T20:51:04.334Z,99.90
2018-05-25T20:53:32.470Z,99.90
2018-05-25T20:56:00.590Z,99.90
2018-05-25T20:58:28.739Z,99.90
2018-05-25T21:01:05.002Z,99.90
2018-05-25T21:03:33.873Z,99.90
2018-05-25T21:06:03.077Z,99.90
2018-05-25T21:08:31.141Z,99.90
2018-05-25T21:11:11.401Z,99.90
2018-05-25T21:13:39.485Z,99.90
2018-05-25T21:16:07.546Z,99.90
2018-05-25T21:18:35.617Z,99.90
2018-05-25T21:21:14.829Z,99.90
2018-05-25T21:23:42.898Z,99.90
2018-05-25T21:26:10.973Z,99.90
2018-05-25T21:28:39.047Z,99.90
2018-05-25T21:31:09.081Z,99.90
2018-05-25T21:33:37.169Z,99.90
2018-05-25T21:36:06.026Z,99.90
2018-05-25T21:38:34.090Z,99.90
2018-05-25T21:41:23.233Z,99.90
2018-05-25T21:43:52.078Z,99.90
2018-05-25T21:46:21.294Z,99.90
2018-05-25T21:48:49.370Z,99.90
2018-05-25T21:51:29.265Z,99.90
2018-05-25T21:53:57.333Z,99.90
2018-05-25T21:56:25.433Z,99.90
2018-05-25T21:58:53.501Z,99.90
2018-05-25T22:01:21.577Z,99.90
2018-05-25T22:03:49.656Z,99.90
2018-05-25T22:06:18.497Z,99.90
2018-05-25T22:08:46.573Z,99.90
2018-05-25T22:11:16.700Z,99.90
2018-05-25T22:13:44.773Z,99.90
2018-05-25T22:16:13.733Z,99.90
2018-05-25T22:18:41.794Z,99.90
2018-05-25T22:21:20.761Z,99.90
2018-05-25T22:23:48.833Z,99.90
2018-05-25T22:26:16.918Z,99.90
2018-05-25T22:28:44.981Z,99.90
2018-05-25T22:31:21.669Z,99.90
2018-05-25T22:33:49.737Z,99.90
2018-05-25T22:36:17.821Z,99.90
2018-05-25T22:38:47.034Z,99.90
2018-05-25T22:41:23.053Z,99.90
2018-05-25T22:44:08.933Z,99.90
2018-05-25T22:46:54.888Z,99.90
2018-05-25T22:49:40.789Z,99.90
2018-05-25T22:55:17.625Z,99.90
2018-05-25T22:57:45.701Z,99.90
2018-05-25T23:00:13.789Z,99.90
2018-05-25T23:02:55.410Z,99.90
2018-05-25T23:05:23.498Z,99.90
2018-05-25T23:07:51.585Z,99.90
2018-05-25T23:10:19.658Z,99.90
2018-05-25T23:12:56.650Z,99.90
2018-05-25T23:15:24.737Z,99.90
2018-05-25T23:17:53.590Z,99.90
2018-05-25T23:20:21.665Z,99.90
2018-05-25T23:22:49.742Z,99.90
2018-05-25T23:25:17.809Z,99.90
2018-05-25T23:27:45.901Z,99.90
2018-05-25T23:30:13.985Z,99.90
2018-05-25T23:32:56.758Z,99.90
2018-05-25T23:35:24.826Z,99.90
2018-05-25T23:37:52.909Z,99.90
2018-05-25T23:40:20.986Z,99.90
2018-05-25T23:42:49.070Z,99.90
2018-05-25T23:45:17.151Z,99.90
2018-05-25T23:47:45.230Z,99.90
2018-05-25T23:50:14.074Z,99.90
2018-05-25T23:52:44.138Z,99.90
2018-05-25T23:55:12.981Z,99.90
2018-05-25T23:57:41.073Z,99.90
